createdAt,value
2022-11-22T00:00:50.148Z,46.12
2022-11-22T00:03:18.000Z,46.03
2022-11-22T00:05:45.505Z,45.88
2022-11-22T00:08:12.994Z,45.24
2022-11-22T00:10:40.533Z,45.44
2022-11-22T00:13:08.017Z,45.34
2022-11-22T00:15:35.612Z,45.98
2022-11-22T00:18:02.967Z,46.04
2022-11-22T00:20:30.464Z,45.93
2022-11-22T00:22:58.582Z,45.59
2022-11-22T00:25:26.546Z,45.22
2022-11-22T00:27:54.532Z,45.24
2022-11-22T00:30:21.973Z,45.22
2022-11-22T00:32:49.357Z,45.07
2022-11-22T00:35:16.879Z,44.65
2022-11-22T00:37:44.229Z,45.01
2022-11-22T00:40:12.069Z,44.88
2022-11-22T00:42:40.145Z,44.92
2022-11-22T00:45:08.155Z,44.02
2022-11-22T00:47:35.539Z,44.81
2022-11-22T00:50:02.975Z,45.17
2022-11-22T00:52:31.184Z,45.08
2022-11-22T00:54:58.640Z,44.41
2022-11-22T00:57:25.956Z,45.18
2022-11-22T00:59:53.374Z,44.93
2022-11-22T01:02:20.831Z,45.13
2022-11-22T01:04:48.175Z,45.40
2022-11-22T01:07:15.618Z,44.86
2022-11-22T01:09:43.032Z,44.96
2022-11-22T01:12:10.544Z,45.06
2022-11-22T01:14:37.906Z,44.91
2022-11-22T01:17:05.367Z,45.99
2022-11-22T01:19:33.061Z,46.06
2022-11-22T01:22:00.529Z,45.83
2022-11-22T01:24:27.893Z,45.32
2022-11-22T01:26:55.622Z,44.77
2022-11-22T01:29:23.050Z,45.32
2022-11-22T01:31:50.448Z,45.61
2022-11-22T01:34:17.814Z,45.33
2022-11-22T01:36:45.263Z,45.27
2022-11-22T01:39:12.866Z,45.32
2022-11-22T01:41:40.244Z,45.89
2022-11-22T01:44:39.933Z,45.99
2022-11-22T01:47:14.252Z,46.31
2022-11-22T01:49:48.467Z,45.46
2022-11-22T01:52:22.072Z,45.00
2022-11-22T01:55:13.588Z,45.15
2022-11-22T01:57:43.637Z,45.37
2022-11-22T02:00:14.966Z,45.15
2022-11-22T02:02:50.177Z,45.13
2022-11-22T02:05:22.021Z,45.18
2022-11-22T02:08:33.798Z,45.62
2022-11-22T02:11:03.946Z,45.02
2022-11-22T02:13:35.162Z,44.35
2022-11-22T02:16:03.718Z,45.81
2022-11-22T02:18:32.355Z,44.97
2022-11-22T02:21:00.164Z,45.04
2022-11-22T02:23:50.295Z,46.22
2022-11-22T02:26:18.108Z,45.25
2022-11-22T02:28:45.843Z,44.94
2022-11-22T02:31:39.713Z,47.39
2022-11-22T02:34:07.628Z,47.13
2022-11-22T02:36:40.001Z,47.19
2022-11-22T02:39:09.460Z,46.97
2022-11-22T02:41:38.122Z,46.74
2022-11-22T02:44:07.942Z,46.80
2022-11-22T02:46:35.388Z,46.93
2022-11-22T02:49:02.840Z,46.65
2022-11-22T02:51:30.440Z,48.24
2022-11-22T02:53:57.981Z,48.12
2022-11-22T02:56:25.412Z,49.37
2022-11-22T02:58:52.743Z,48.45
2022-11-22T03:01:20.158Z,47.67
2022-11-22T03:03:47.676Z,46.94
2022-11-22T03:06:14.973Z,46.71
2022-11-22T03:08:42.454Z,46.38
2022-11-22T03:11:09.953Z,47.54
2022-11-22T03:13:38.777Z,48.02
2022-11-22T03:16:06.315Z,48.82
2022-11-22T03:18:35.069Z,47.81
2022-11-22T03:21:04.035Z,48.78
2022-11-22T03:23:31.699Z,48.57
2022-11-22T03:26:00.009Z,48.58
2022-11-22T03:28:27.395Z,51.79
2022-11-22T03:30:54.854Z,51.73
2022-11-22T03:33:22.204Z,51.25
2022-11-22T03:35:49.601Z,50.90
2022-11-22T03:38:17.017Z,53.20
2022-11-22T03:40:47.174Z,54.37
2022-11-22T03:43:14.591Z,54.80
2022-11-22T03:45:48.705Z,56.17
2022-11-22T03:48:16.204Z,53.48
2022-11-22T03:50:43.802Z,53.20
2022-11-22T03:53:11.709Z,52.50
2022-11-22T03:55:39.426Z,53.10
2022-11-22T03:58:07.177Z,52.37
2022-11-22T04:00:35.172Z,52.15
2022-11-22T04:03:02.624Z,53.01
2022-11-22T04:05:29.989Z,52.81
2022-11-22T04:08:00.011Z,53.52
2022-11-22T04:10:27.548Z,54.06
2022-11-22T04:12:59.588Z,55.38
2022-11-22T04:15:27.754Z,54.91
2022-11-22T04:17:55.431Z,54.90
2022-11-22T04:20:46.591Z,53.03
2022-11-22T04:23:19.633Z,52.78
2022-11-22T04:25:50.600Z,52.11
2022-11-22T04:28:20.280Z,51.91
2022-11-22T04:31:07.356Z,50.52
2022-11-22T04:33:35.652Z,49.23
2022-11-22T04:36:19.026Z,50.64
2022-11-22T04:38:46.383Z,51.27
2022-11-22T04:41:22.122Z,50.32
2022-11-22T04:44:08.872Z,49.41
2022-11-22T04:46:36.556Z,49.06
2022-11-22T04:49:04.369Z,49.31
2022-11-22T04:51:53.152Z,49.11
2022-11-22T04:54:26.084Z,49.48
2022-11-22T04:56:55.592Z,48.97
2022-11-22T04:59:23.612Z,48.20
2022-11-22T05:01:53.132Z,47.98
2022-11-22T05:04:20.901Z,49.29
2022-11-22T05:06:52.053Z,48.78
2022-11-22T05:09:29.154Z,47.91
2022-11-22T05:11:58.262Z,48.17
2022-11-22T05:14:25.904Z,47.86
2022-11-22T05:16:53.213Z,47.12
2022-11-22T05:19:20.496Z,47.23
2022-11-22T05:21:47.917Z,46.81
2022-11-22T05:24:15.312Z,47.00
2022-11-22T05:26:43.003Z,46.48
2022-11-22T05:29:11.022Z,46.75
2022-11-22T05:31:40.173Z,46.82
2022-11-22T05:34:07.806Z,46.36
2022-11-22T05:36:35.887Z,46.16
2022-11-22T05:39:04.351Z,45.33
2022-11-22T05:41:31.747Z,44.88
2022-11-22T05:43:59.459Z,44.33
2022-11-22T05:46:29.080Z,44.75
2022-11-22T05:48:58.070Z,44.37
2022-11-22T05:51:32.520Z,44.42
2022-11-22T05:54:02.040Z,44.06
2022-11-22T05:56:29.487Z,43.92
2022-11-22T05:58:56.906Z,43.98
2022-11-22T06:01:25.201Z,44.61
2022-11-22T06:03:53.273Z,44.77
2022-11-22T06:06:20.943Z,44.08
2022-11-22T06:08:48.843Z,44.48
2022-11-22T06:11:18.824Z,44.34
2022-11-22T06:13:47.798Z,44.66
2022-11-22T06:16:15.996Z,44.53
2022-11-22T06:18:44.054Z,44.74
2022-11-22T06:21:14.440Z,44.95
2022-11-22T06:23:42.497Z,44.14
2022-11-22T06:26:15.096Z,45.39
2022-11-22T06:28:43.326Z,44.96
2022-11-22T06:31:16.319Z,44.25
2022-11-22T06:33:44.902Z,43.64
2022-11-22T06:36:18.198Z,44.17
2022-11-22T06:38:46.541Z,44.55
2022-11-22T06:41:19.583Z,44.10
2022-11-22T06:43:49.823Z,43.56
2022-11-22T06:46:19.665Z,44.45
2022-11-22T06:48:47.842Z,43.33
2022-11-22T06:51:24.258Z,42.90
2022-11-22T06:53:53.064Z,42.18
2022-11-22T06:56:21.936Z,42.41
2022-11-22T06:58:51.116Z,41.48
2022-11-22T07:01:21.301Z,42.11
2022-11-22T07:03:49.757Z,42.26
2022-11-22T07:06:19.017Z,43.39
2022-11-22T07:08:46.998Z,43.42
2022-11-22T07:11:17.502Z,43.10
2022-11-22T07:13:45.541Z,43.83
2022-11-22T07:16:15.179Z,43.34
2022-11-22T07:18:42.747Z,42.66
2022-11-22T07:21:13.436Z,42.74
2022-11-22T07:23:42.945Z,43.22
2022-11-22T07:26:11.309Z,42.88
2022-11-22T07:28:39.396Z,42.01
2022-11-22T07:31:08.971Z,43.45
2022-11-22T07:33:36.645Z,41.28
2022-11-22T07:36:12.153Z,40.77
2022-11-22T07:38:39.786Z,40.34
2022-11-22T07:41:08.439Z,40.26
2022-11-22T07:43:36.226Z,39.82
2022-11-22T07:46:11.960Z,40.16
2022-11-22T07:48:39.452Z,39.86
2022-11-22T07:51:07.795Z,39.92
2022-11-22T07:53:35.825Z,39.21
2022-11-22T07:56:07.022Z,39.34
2022-11-22T07:58:35.057Z,38.91
2022-11-22T08:01:21.783Z,39.12
2022-11-22T08:03:49.410Z,39.14
2022-11-22T08:06:16.861Z,39.35
2022-11-22T08:08:44.760Z,38.66
2022-11-22T08:11:12.731Z,39.27
2022-11-22T08:13:40.511Z,38.64
2022-11-22T08:16:11.399Z,39.43
2022-11-22T08:18:39.643Z,39.16
2022-11-22T08:21:11.752Z,39.07
2022-11-22T08:23:39.973Z,38.71
2022-11-22T08:26:10.063Z,39.00
2022-11-22T08:28:37.443Z,39.13
2022-11-22T08:31:16.969Z,39.03
2022-11-22T08:33:44.409Z,38.77
2022-11-22T08:36:12.220Z,38.65
2022-11-22T08:38:39.950Z,38.81
2022-11-22T08:41:07.477Z,38.46
2022-11-22T08:43:35.131Z,38.83
2022-11-22T08:46:04.218Z,39.60
2022-11-22T08:48:33.737Z,39.27
2022-11-22T08:51:06.820Z,39.31
2022-11-22T08:53:35.664Z,39.07
2022-11-22T08:56:04.526Z,39.63
2022-11-22T08:58:34.858Z,40.04
2022-11-22T09:01:06.393Z,40.14
2022-11-22T09:03:37.482Z,40.28
2022-11-22T09:09:22.576Z,40.25
2022-11-22T09:11:48.134Z,40.71
2022-11-22T09:14:15.627Z,40.77
2022-11-22T09:16:42.993Z,40.84
2022-11-22T09:19:10.433Z,40.53
2022-11-22T09:21:37.780Z,39.55
2022-11-22T09:24:05.596Z,40.20
2022-11-22T09:26:33.341Z,39.43
2022-11-22T09:29:00.831Z,41.11
2022-11-22T09:31:28.186Z,40.73
2022-11-22T09:33:55.596Z,40.63
2022-11-22T09:36:28.140Z,41.43
2022-11-22T09:39:10.630Z,40.86
2022-11-22T09:42:06.370Z,40.59
2022-11-22T09:44:43.394Z,41.20
2022-11-22T09:47:29.685Z,40.29
2022-11-22T09:50:31.114Z,41.40
2022-11-22T09:53:17.271Z,40.50
2022-11-22T09:56:10.150Z,40.34
2022-11-22T09:58:59.847Z,40.05
2022-11-22T10:01:33.570Z,39.82
2022-11-22T10:04:11.114Z,40.75
2022-11-22T10:06:44.435Z,40.27
2022-11-22T10:09:33.075Z,39.79
2022-11-22T10:12:23.453Z,39.80
2022-11-22T10:15:09.163Z,39.89
2022-11-22T10:17:56.104Z,39.23
2022-11-22T10:20:49.878Z,40.11
2022-11-22T10:23:21.663Z,39.64
2022-11-22T10:26:02.230Z,40.10
2022-11-22T10:28:58.046Z,40.34
2022-11-22T10:32:06.905Z,40.71
2022-11-22T10:35:25.242Z,41.02
2022-11-22T10:38:10.030Z,41.07
2022-11-22T10:40:44.111Z,39.81
2022-11-22T10:43:46.741Z,40.82
2022-11-22T10:46:23.571Z,40.10
2022-11-22T10:49:33.461Z,41.15
2022-11-22T10:52:29.877Z,41.16
2022-11-22T10:55:22.808Z,40.95
2022-11-22T10:58:03.933Z,40.46
2022-11-22T11:00:33.898Z,39.67
2022-11-22T11:03:13.587Z,40.24
2022-11-22T11:06:26.702Z,40.82
2022-11-22T11:12:39.727Z,41.03
2022-11-22T11:15:21.109Z,41.05
2022-11-22T11:17:58.856Z,40.97
2022-11-22T11:20:38.040Z,41.35
2022-11-22T11:23:16.507Z,41.03
2022-11-22T11:25:54.733Z,41.44
2022-11-22T11:28:24.889Z,41.17
2022-11-22T11:31:10.545Z,42.35
2022-11-22T11:33:39.850Z,41.98
2022-11-22T11:36:23.861Z,41.97
2022-11-22T11:38:57.570Z,41.79
2022-11-22T11:41:42.093Z,42.39
2022-11-22T11:44:37.158Z,42.88
2022-11-22T11:47:05.365Z,42.26
2022-11-22T11:49:34.884Z,42.30
2022-11-22T11:52:05.611Z,42.81
2022-11-22T11:54:32.911Z,42.16
2022-11-22T11:57:05.525Z,42.65
2022-11-22T11:59:38.677Z,42.77
2022-11-22T12:02:14.942Z,43.68
2022-11-22T12:05:27.346Z,43.35
2022-11-22T12:07:54.830Z,42.50
2022-11-22T12:10:47.915Z,43.76
2022-11-22T12:13:21.386Z,42.58
2022-11-22T12:16:01.828Z,43.22
2022-11-22T12:18:44.467Z,43.21
2022-11-22T12:21:26.831Z,43.21
2022-11-22T12:24:42.755Z,42.90
2022-11-22T12:27:00.318Z,43.16
2022-11-22T12:29:28.469Z,43.17
2022-11-22T12:32:17.243Z,43.87
2022-11-22T12:35:00.564Z,44.91
2022-11-22T12:37:44.492Z,43.67
2022-11-22T12:40:18.926Z,44.10
2022-11-22T12:43:01.132Z,44.12
2022-11-22T12:45:40.899Z,43.88
2022-11-22T12:48:29.465Z,44.77
2022-11-22T12:51:20.901Z,44.07
2022-11-22T12:53:49.364Z,43.75
2022-11-22T12:56:33.366Z,44.50
2022-11-22T12:59:04.263Z,43.80
2022-11-22T13:01:37.859Z,44.23
2022-11-22T13:04:11.497Z,44.30
2022-11-22T13:07:01.984Z,45.08
2022-11-22T13:09:33.776Z,43.70
2022-11-22T13:12:10.214Z,44.11
2022-11-22T13:14:47.940Z,44.81
2022-11-22T13:17:18.401Z,44.19
2022-11-22T13:20:06.456Z,45.07
2022-11-22T13:22:52.819Z,44.43
2022-11-22T13:25:45.801Z,44.56
2022-11-22T13:28:15.998Z,43.38
2022-11-22T13:31:09.466Z,43.47
2022-11-22T13:33:56.940Z,42.88
2022-11-22T13:36:27.633Z,42.17
2022-11-22T13:38:58.103Z,41.91
2022-11-22T13:41:36.872Z,42.49
2022-11-22T13:44:22.734Z,43.10
2022-11-22T13:46:50.230Z,42.33
2022-11-22T13:49:54.174Z,43.12
2022-11-22T13:52:21.546Z,41.98
2022-11-22T13:54:48.924Z,42.13
2022-11-22T13:57:28.180Z,42.03
2022-11-22T14:00:17.030Z,42.57
2022-11-22T14:02:46.160Z,41.34
2022-11-22T14:05:35.337Z,42.40
2022-11-22T14:08:06.540Z,40.77
2022-11-22T14:10:38.015Z,41.71
2022-11-22T14:13:36.298Z,40.86
2022-11-22T14:16:17.718Z,41.08
2022-11-22T14:19:11.090Z,41.97
2022-11-22T14:22:10.176Z,41.52
2022-11-22T14:25:10.515Z,41.55
2022-11-22T14:27:52.145Z,40.70
2022-11-22T14:30:40.581Z,40.88
2022-11-22T14:33:17.704Z,41.46
2022-11-22T14:36:07.067Z,42.28
2022-11-22T14:38:35.678Z,40.85
2022-11-22T14:41:31.237Z,42.67
2022-11-22T14:44:08.967Z,41.36
2022-11-22T14:46:56.036Z,41.08
2022-11-22T14:49:32.128Z,40.85
2022-11-22T14:52:00.535Z,41.55
2022-11-22T14:54:43.544Z,42.02
2022-11-22T14:57:18.855Z,41.18
2022-11-22T15:00:15.261Z,41.62
2022-11-22T15:03:05.499Z,42.08
2022-11-22T15:09:11.679Z,41.61
2022-11-22T15:09:13.540Z,41.54
2022-11-22T15:12:04.462Z,42.11
2022-11-22T15:57:47.186Z,41.51
2022-11-22T16:00:29.072Z,42.14
2022-11-22T16:03:01.885Z,42.44
2022-11-22T16:06:05.265Z,41.65
2022-11-22T16:08:31.060Z,41.43
2022-11-22T16:11:06.408Z,41.44
2022-11-22T16:13:36.945Z,41.82
2022-11-22T16:16:13.841Z,42.76
2022-11-22T16:18:43.066Z,41.67
2022-11-22T16:21:10.924Z,41.74
2022-11-22T16:23:40.394Z,41.65
2022-11-22T16:26:15.124Z,42.01
2022-11-22T16:28:42.630Z,41.73
2022-11-22T16:31:31.944Z,42.45
2022-11-22T16:34:00.007Z,41.20
2022-11-22T16:36:30.305Z,41.53
2022-11-22T16:38:58.075Z,41.75
2022-11-22T16:41:27.631Z,41.16
2022-11-22T16:44:00.718Z,41.62
2022-11-22T16:46:32.178Z,41.37
2022-11-22T16:48:59.661Z,40.69
2022-11-22T16:51:48.848Z,41.75
2022-11-22T16:54:25.263Z,41.41
2022-11-22T16:56:52.979Z,40.99
2022-11-22T16:59:21.632Z,41.25
2022-11-22T17:01:56.359Z,40.96
2022-11-22T17:04:28.550Z,40.98
2022-11-22T17:06:56.095Z,40.48
2022-11-22T17:09:23.513Z,40.70
2022-11-22T17:11:51.200Z,41.35
2022-11-22T17:14:19.747Z,40.83
2022-11-22T17:16:47.476Z,40.28
2022-11-22T17:19:37.572Z,41.01
2022-11-22T17:22:02.467Z,40.33
2022-11-22T17:24:30.255Z,40.48
2022-11-22T17:26:58.039Z,40.94
2022-11-22T17:29:55.555Z,40.54
2022-11-22T17:32:13.972Z,40.88
2022-11-22T17:34:42.557Z,40.49
2022-11-22T17:37:14.009Z,40.53
2022-11-22T17:39:42.092Z,40.66
2022-11-22T17:42:09.585Z,41.23
2022-11-22T17:44:36.941Z,41.18
2022-11-22T17:47:04.911Z,40.69
2022-11-22T17:49:32.755Z,40.71
2022-11-22T17:52:28.235Z,41.12
2022-11-22T17:54:58.363Z,41.30
2022-11-22T17:57:31.848Z,41.08
2022-11-22T17:59:59.330Z,41.17
2022-11-22T18:02:27.299Z,41.07
2022-11-22T18:04:59.370Z,40.98
2022-11-22T18:07:33.403Z,43.04
2022-11-22T18:10:02.074Z,43.55
2022-11-22T18:12:31.114Z,41.89
2022-11-22T18:14:58.570Z,41.22
2022-11-22T18:17:27.580Z,41.06
2022-11-22T18:19:54.947Z,40.36
2022-11-22T18:22:22.522Z,41.22
2022-11-22T18:24:50.009Z,40.55
2022-11-22T18:27:17.825Z,40.56
2022-11-22T18:29:45.375Z,39.89
2022-11-22T18:32:12.907Z,40.51
2022-11-22T18:34:41.746Z,40.32
2022-11-22T18:37:13.224Z,40.23
2022-11-22T18:40:08.196Z,39.94
2022-11-22T18:42:36.990Z,40.13
2022-11-22T18:45:04.786Z,40.33
2022-11-22T18:47:32.204Z,39.94
2022-11-22T18:50:00.317Z,39.60
2022-11-22T18:52:27.626Z,39.54
2022-11-22T18:54:56.491Z,39.50
2022-11-22T18:57:24.821Z,40.13
2022-11-22T18:59:52.173Z,39.63
2022-11-22T19:02:25.927Z,39.47
2022-11-22T19:04:56.396Z,39.67
2022-11-22T19:07:25.351Z,39.12
2022-11-22T19:09:53.849Z,40.22
2022-11-22T19:12:22.722Z,39.83
2022-11-22T19:14:50.827Z,39.54
2022-11-22T19:17:21.855Z,40.07
2022-11-22T19:19:52.025Z,40.03
2022-11-22T19:22:20.148Z,40.46
2022-11-22T19:24:47.644Z,40.76
2022-11-22T19:27:15.003Z,41.07
2022-11-22T19:29:42.714Z,41.21
2022-11-22T19:32:10.352Z,40.79
2022-11-22T19:34:37.910Z,40.58
2022-11-22T19:37:06.583Z,40.56
2022-11-22T19:39:33.963Z,40.20
2022-11-22T19:42:01.345Z,40.21
2022-11-22T19:44:28.777Z,40.35
2022-11-22T19:46:56.135Z,40.40
2022-11-22T19:49:23.561Z,40.67
2022-11-22T19:51:50.980Z,40.56
2022-11-22T19:54:18.542Z,40.55
2022-11-22T19:56:47.224Z,41.24
2022-11-22T19:59:16.636Z,40.86
2022-11-22T20:01:44.392Z,41.28
2022-11-22T20:04:19.365Z,41.95
2022-11-22T20:06:50.138Z,41.42
2022-11-22T20:09:18.047Z,41.91
2022-11-22T20:11:45.951Z,41.77
2022-11-22T20:14:13.326Z,41.97
2022-11-22T20:16:41.917Z,42.23
2022-11-22T20:19:11.528Z,42.57
2022-11-22T20:21:39.872Z,42.51
2022-11-22T20:24:07.820Z,42.90
2022-11-22T20:26:35.817Z,42.90
2022-11-22T20:29:07.028Z,43.13
2022-11-22T20:31:37.002Z,42.86
2022-11-22T20:34:04.864Z,42.76
2022-11-22T20:36:34.747Z,43.24
2022-11-22T20:39:06.978Z,43.33
2022-11-22T20:41:36.366Z,43.81
2022-11-22T20:44:04.136Z,42.91
2022-11-22T20:46:31.532Z,42.59
2022-11-22T20:49:00.589Z,42.73
2022-11-22T20:51:28.991Z,43.26
2022-11-22T20:53:57.578Z,43.13
2022-11-22T20:56:25.458Z,43.20
2022-11-22T20:58:53.218Z,43.57
2022-11-22T21:01:24.080Z,44.22
2022-11-22T21:03:52.043Z,44.00
2022-11-22T21:06:21.096Z,44.02
2022-11-22T21:08:49.020Z,43.90
2022-11-22T21:11:17.772Z,44.63
2022-11-22T21:13:46.290Z,44.40
2022-11-22T21:16:24.246Z,44.42
2022-11-22T21:19:09.463Z,45.43
2022-11-22T21:21:37.389Z,44.49
2022-11-22T21:24:06.319Z,44.75
2022-11-22T21:26:34.737Z,44.84
2022-11-22T21:29:04.520Z,44.55
2022-11-22T21:31:31.959Z,44.68
2022-11-22T21:33:59.337Z,44.89
2022-11-22T21:36:29.706Z,44.64
2022-11-22T21:39:01.780Z,44.25
2022-11-22T21:41:40.585Z,44.43
2022-11-22T21:44:12.900Z,44.25
2022-11-22T21:46:52.011Z,45.37
2022-11-22T21:49:22.183Z,44.26
2022-11-22T21:51:49.774Z,44.44
2022-11-22T21:54:17.154Z,44.13
2022-11-22T21:56:44.551Z,44.84
2022-11-22T21:59:12.206Z,45.21
2022-11-22T22:01:39.907Z,45.86
2022-11-22T22:04:07.439Z,46.00
2022-11-22T22:06:34.948Z,45.60
2022-11-22T22:09:02.299Z,45.64
2022-11-22T22:11:29.785Z,45.28
2022-11-22T22:13:59.185Z,45.80
2022-11-22T22:16:26.666Z,46.06
2022-11-22T22:18:54.681Z,46.42
2022-11-22T22:21:22.161Z,45.80
2022-11-22T22:23:49.704Z,46.38
2022-11-22T22:26:18.148Z,46.62
2022-11-22T22:28:46.612Z,46.43
2022-11-22T22:31:19.401Z,46.26
2022-11-22T22:34:39.306Z,47.06
2022-11-22T22:37:13.584Z,45.98
2022-11-22T22:39:47.850Z,45.82
2022-11-22T22:42:15.746Z,46.09
2022-11-22T22:47:47.864Z,46.88
2022-11-22T22:50:15.593Z,46.37
2022-11-22T22:52:43.070Z,46.68
2022-11-22T22:55:10.440Z,46.93
2022-11-22T22:57:37.899Z,47.18
2022-11-22T23:00:05.629Z,47.55
2022-11-22T23:02:33.122Z,47.56
2022-11-22T23:05:00.439Z,47.85
2022-11-22T23:07:34.005Z,47.75
2022-11-22T23:10:01.489Z,47.93
2022-11-22T23:12:30.012Z,48.51
2022-11-22T23:14:57.459Z,48.49
2022-11-22T23:17:27.973Z,48.78
2022-11-22T23:19:55.311Z,48.11
2022-11-22T23:22:25.947Z,48.70
2022-11-22T23:24:53.565Z,48.61
2022-11-22T23:27:20.948Z,48.10
2022-11-22T23:29:48.304Z,47.90
2022-11-22T23:32:15.705Z,48.41
2022-11-22T23:34:43.038Z,48.42
2022-11-22T23:37:10.354Z,48.50
2022-11-22T23:39:37.743Z,48.67
2022-11-22T23:42:05.144Z,49.08
2022-11-22T23:44:32.563Z,49.19
2022-11-22T23:46:59.995Z,49.46
2022-11-22T23:49:27.328Z,49.49
2022-11-22T23:51:54.719Z,49.56
2022-11-22T23:54:22.142Z,49.80
2022-11-22T23:56:49.428Z,50.23
2022-11-22T23:59:18.601Z,50.04
